Time;durP1;ratioP1;P1;durP2;ratioP2;P2;SDS_P1;SDS_P2;PMS_P1;PMS_P2;Temp;Humidity;BMP_temperature;BMP_pressure;BME280_temperature;BME280_humidity;BME280_pressure;Samples;Min_cycle;Max_cycle;Signal;HPM_P1;HPM_P2
2021/06/20 00:00:28;;;;;;;10.35;5.93;;;;;;;;;;5053278;28;20056;-50
2021/06/20 00:02:54;;;;;;;12.50;5.55;;;;;;;;;;5054051;28;20021;-51
2021/06/20 00:05:22;;;;;;;9.50;5.22;;;;;;;;;;5054065;28;20093;-51
2021/06/20 00:07:49;;;;;;;16.40;5.60;;;;;;;;;;5053228;28;20470;-50
2021/06/20 00:10:17;;;;;;;12.63;5.18;;;;;;;;;;5053006;28;20021;-50
2021/06/20 00:12:44;;;;;;;13.52;5.90;;;;;;;;;;5053793;28;20068;-50
2021/06/20 00:15:11;;;;;;;8.50;5.13;;;;;;;;;;5053967;28;20033;-50
2021/06/20 00:17:38;;;;;;;8.73;5.82;;;;;;;;;;5054137;28;20329;-51
2021/06/20 00:20:05;;;;;;;10.80;6.30;;;;;;;;;;5052429;28;20112;-51
2021/06/20 00:22:31;;;;;;;10.77;6.05;;;;;;;;;;5053650;28;20032;-50
2021/06/20 00:24:57;;;;;;;9.95;6.13;;;;;;;;;;5053294;28;20355;-50
2021/06/20 00:27:23;;;;;;;9.43;5.60;;;;;;;;;;5053893;28;20021;-50
2021/06/20 00:29:49;;;;;;;10.35;6.47;;;;;;;;;;5053071;28;20029;-50
2021/06/20 00:32:15;;;;;;;14.75;6.55;;;;;;;;;;5052956;28;20040;-51
2021/06/20 00:34:41;;;;;;;8.07;5.82;;;;;;;;;;5053324;28;20027;-50
2021/06/20 00:37:07;;;;;;;9.98;5.90;;;;;;;;;;5053522;28;20025;-50
2021/06/20 00:39:34;;;;;;;7.63;5.30;;;;;;;;;;5053109;28;20100;-51
2021/06/20 00:42:00;;;;;;;11.98;5.50;;;;;;;;;;5053273;28;20032;-50
2021/06/20 00:44:26;;;;;;;9.27;6.00;;;;;;;;;;5053497;28;20043;-51
2021/06/20 00:46:52;;;;;;;8.25;5.70;;;;;;;;;;5053447;28;20052;-50
2021/06/20 00:49:18;;;;;;;10.07;5.72;;;;;;;;;;5052975;28;20195;-50
2021/06/20 00:51:45;;;;;;;14.52;5.32;;;;;;;;;;5052114;28;20044;-50
2021/06/20 00:54:11;;;;;;;10.40;5.72;;;;;;;;;;5052901;28;20355;-50
2021/06/20 00:56:37;;;;;;;12.15;6.47;;;;;;;;;;5053440;28;20025;-50
2021/06/20 00:59:04;;;;;;;13.63;6.22;;;;;;;;;;5052933;28;20048;-50
2021/06/20 01:01:30;;;;;;;10.50;5.55;;;;;;;;;;5052364;28;20405;-50
2021/06/20 01:03:57;;;;;;;8.38;5.70;;;;;;;;;;5052440;28;20040;-50
2021/06/20 01:06:23;;;;;;;9.10;5.05;;;;;;;;;;5053326;28;20050;-50
2021/06/20 01:08:49;;;;;;;11.43;6.18;;;;;;;;;;5052122;28;20448;-50
2021/06/20 01:11:15;;;;;;;7.85;5.47;;;;;;;;;;5051810;28;20522;-50
2021/06/20 01:13:43;;;;;;;9.93;5.97;;;;;;;;;;5053145;28;20029;-50
2021/06/20 01:16:09;;;;;;;14.43;6.82;;;;;;;;;;5052836;28;20094;-50
2021/06/20 01:18:35;;;;;;;9.70;5.72;;;;;;;;;;5052541;28;20463;-51
2021/06/20 01:21:01;;;;;;;9.38;5.55;;;;;;;;;;5051821;28;20033;-50
2021/06/20 01:23:27;;;;;;;11.60;6.10;;;;;;;;;;5052930;28;20066;-50
2021/06/20 01:25:55;;;;;;;7.18;5.75;;;;;;;;;;5052281;28;20035;-50
2021/06/20 01:28:26;;;;;;;14.55;6.68;;;;;;;;;;5053060;28;20109;-50
2021/06/20 01:30:58;;;;;;;7.85;5.90;;;;;;;;;;5051805;28;20336;-50
2021/06/20 01:33:24;;;;;;;14.57;5.97;;;;;;;;;;5052607;28;20033;-50
2021/06/20 01:35:50;;;;;;;9.27;5.63;;;;;;;;;;5052787;28;20025;-50
2021/06/20 01:38:17;;;;;;;10.75;5.35;;;;;;;;;;5052201;28;20509;-50
2021/06/20 01:40:43;;;;;;;9.07;5.70;;;;;;;;;;5051492;28;20403;-50
2021/06/20 01:43:09;;;;;;;10.43;5.35;;;;;;;;;;5052036;28;20021;-50
2021/06/20 01:45:37;;;;;;;9.20;5.40;;;;;;;;;;5051998;28;20063;-50
2021/06/20 01:48:03;;;;;;;13.13;6.22;;;;;;;;;;5052714;28;20036;-50
2021/06/20 01:50:33;;;;;;;9.90;5.65;;;;;;;;;;5051735;28;20025;-50
2021/06/20 01:53:03;;;;;;;9.93;5.45;;;;;;;;;;5052106;28;20341;-50
2021/06/20 01:55:29;;;;;;;10.32;5.80;;;;;;;;;;5052422;28;20032;-50
2021/06/20 01:57:55;;;;;;;9.65;5.50;;;;;;;;;;5052285;28;20025;-50
2021/06/20 02:00:21;;;;;;;15.43;5.80;;;;;;;;;;5051396;28;20439;-50
2021/06/20 02:02:47;;;;;;;9.77;5.93;;;;;;;;;;5052490;28;20028;-50
2021/06/20 02:05:13;;;;;;;10.32;5.22;;;;;;;;;;5052219;28;20017;-50
2021/06/20 02:07:40;;;;;;;8.77;5.63;;;;;;;;;;5052504;28;20086;-50
2021/06/20 02:10:07;;;;;;;11.00;6.05;;;;;;;;;;5052057;28;20021;-50
2021/06/20 02:12:33;;;;;;;11.70;5.90;;;;;;;;;;5051938;28;20040;-50
2021/06/20 02:14:59;;;;;;;12.07;6.22;;;;;;;;;;5052288;28;20029;-50
2021/06/20 02:17:27;;;;;;;10.73;5.43;;;;;;;;;;5052241;28;20111;-50
2021/06/20 02:19:54;;;;;;;9.30;5.03;;;;;;;;;;5052368;28;20086;-51
2021/06/20 02:22:20;;;;;;;12.35;6.22;;;;;;;;;;5054708;28;20447;-50
2021/06/20 02:24:47;;;;;;;8.00;5.50;;;;;;;;;;5055930;28;20029;-50
2021/06/20 02:27:13;;;;;;;13.18;6.28;;;;;;;;;;5055460;28;20028;-50
2021/06/20 02:29:43;;;;;;;8.80;5.50;;;;;;;;;;5056319;28;20025;-50
2021/06/20 02:32:10;;;;;;;7.60;5.60;;;;;;;;;;5055166;28;20071;-50
2021/06/20 02:34:37;;;;;;;10.05;5.97;;;;;;;;;;5055968;28;20486;-50
2021/06/20 02:37:04;;;;;;;13.52;5.65;;;;;;;;;;5055834;28;20029;-50
2021/06/20 02:39:30;;;;;;;12.38;5.70;;;;;;;;;;5055354;28;20108;-50
2021/06/20 02:41:56;;;;;;;9.40;5.90;;;;;;;;;;5054766;28;20033;-51
2021/06/20 02:44:22;;;;;;;11.68;5.72;;;;;;;;;;5055270;28;20032;-50
2021/06/20 02:46:48;;;;;;;7.57;5.88;;;;;;;;;;5055465;28;20032;-50
2021/06/20 02:49:14;;;;;;;10.48;6.50;;;;;;;;;;5041125;28;20143;-50
2021/06/20 02:51:43;;;;;;;10.40;5.82;;;;;;;;;;5054695;28;20029;-50
2021/06/20 02:54:09;;;;;;;8.95;5.65;;;;;;;;;;5055093;28;20035;-50
2021/06/20 02:56:35;;;;;;;8.90;5.30;;;;;;;;;;5054143;28;20025;-50
2021/06/20 02:59:01;;;;;;;21.70;5.43;;;;;;;;;;5055391;28;20388;-50
2021/06/20 03:01:27;;;;;;;14.20;4.65;;;;;;;;;;5054619;28;20036;-50
2021/06/20 03:03:53;;;;;;;17.23;5.45;;;;;;;;;;5055296;28;20112;-50
2021/06/20 03:06:19;;;;;;;17.70;5.30;;;;;;;;;;5055565;28;20375;-51
2021/06/20 03:08:45;;;;;;;20.52;5.43;;;;;;;;;;5054950;28;20033;-50
2021/06/20 03:11:11;;;;;;;20.10;5.15;;;;;;;;;;5054155;28;20479;-50
2021/06/20 03:13:37;;;;;;;21.33;5.25;;;;;;;;;;5055227;28;20031;-50
2021/06/20 03:16:03;;;;;;;15.57;5.72;;;;;;;;;;5055197;28;20092;-50
2021/06/20 03:18:29;;;;;;;13.07;5.10;;;;;;;;;;5055269;28;20021;-51
2021/06/20 03:20:55;;;;;;;18.92;5.05;;;;;;;;;;5054241;28;20033;-50
2021/06/20 03:23:21;;;;;;;15.43;5.15;;;;;;;;;;5054731;28;20107;-50
2021/06/20 03:25:47;;;;;;;19.83;5.97;;;;;;;;;;5055196;28;20321;-50
2021/06/20 03:28:13;;;;;;;14.57;5.30;;;;;;;;;;5054994;28;20025;-50
2021/06/20 03:30:39;;;;;;;15.60;5.75;;;;;;;;;;5054197;28;20025;-50
2021/06/20 03:33:05;;;;;;;20.65;6.00;;;;;;;;;;5053806;28;20037;-50
2021/06/20 03:35:31;;;;;;;25.83;6.15;;;;;;;;;;5054900;28;20045;-50
2021/06/20 03:37:57;;;;;;;23.13;5.30;;;;;;;;;;5054733;28;20029;-50
2021/06/20 03:40:24;;;;;;;28.85;5.53;;;;;;;;;;5053914;28;20348;-50
2021/06/20 03:42:50;;;;;;;22.80;5.05;;;;;;;;;;5054611;28;20557;-50
2021/06/20 03:45:16;;;;;;;26.55;5.05;;;;;;;;;;5054547;28;20074;-50
2021/06/20 03:47:42;;;;;;;23.67;6.47;;;;;;;;;;5054561;28;20025;-50
2021/06/20 03:50:09;;;;;;;22.33;4.93;;;;;;;;;;5053761;28;20104;-50
2021/06/20 03:52:35;;;;;;;13.80;4.35;;;;;;;;;;5053548;28;20086;-50
2021/06/20 03:55:01;;;;;;;26.50;4.60;;;;;;;;;;5054388;28;20023;-50
2021/06/20 03:57:27;;;;;;;22.15;4.13;;;;;;;;;;5054521;28;20033;-50
2021/06/20 03:59:53;;;;;;;27.67;4.63;;;;;;;;;;5054305;28;20376;-50
2021/06/20 04:02:20;;;;;;;25.42;5.05;;;;;;;;;;5053760;28;20442;-50
2021/06/20 04:04:46;;;;;;;18.55;4.25;;;;;;;;;;5054354;28;20444;-50
2021/06/20 04:07:12;;;;;;;19.33;5.03;;;;;;;;;;5053819;28;20406;-50
2021/06/20 04:09:42;;;;;;;18.48;4.32;;;;;;;;;;5054179;28;20017;-50
2021/06/20 04:12:13;;;;;;;16.35;3.70;;;;;;;;;;5053580;28;20060;-51
2021/06/20 04:14:39;;;;;;;17.08;4.28;;;;;;;;;;5053938;28;20029;-50
2021/06/20 04:17:05;;;;;;;21.33;3.78;;;;;;;;;;5054244;28;20083;-50
2021/06/20 04:19:32;;;;;;;11.35;3.63;;;;;;;;;;5053695;28;20120;-51
2021/06/20 04:21:58;;;;;;;21.27;3.85;;;;;;;;;;5053259;28;20053;-50
2021/06/20 04:24:24;;;;;;;27.40;4.20;;;;;;;;;;5054023;28;20025;-50
2021/06/20 04:26:50;;;;;;;19.05;3.70;;;;;;;;;;5053973;28;20039;-50
2021/06/20 04:29:16;;;;;;;18.58;4.10;;;;;;;;;;5053566;28;20109;-50
2021/06/20 04:31:42;;;;;;;21.48;4.50;;;;;;;;;;5052752;28;20029;-50
2021/06/20 04:34:08;;;;;;;23.75;3.63;;;;;;;;;;5052970;28;20032;-51
2021/06/20 04:36:34;;;;;;;21.67;4.25;;;;;;;;;;5053908;28;20021;-50
2021/06/20 04:39:00;;;;;;;18.27;3.30;;;;;;;;;;5053922;28;20390;-50
2021/06/20 04:41:26;;;;;;;17.17;3.67;;;;;;;;;;5052934;28;20100;-50
2021/06/20 04:46:35;;;;;;;13.23;3.80;;;;;;;;;;5053372;28;20048;-50
2021/06/20 04:49:03;;;;;;;20.83;3.35;;;;;;;;;;5053500;28;20447;-50
2021/06/20 04:51:31;;;;;;;20.23;4.38;;;;;;;;;;5052461;28;20028;-51
2021/06/20 04:53:57;;;;;;;25.88;5.00;;;;;;;;;;5049677;28;20032;-50
2021/06/20 04:56:23;;;;;;;10.15;2.25;;;;;;;;;;5042181;28;20114;-50
2021/06/20 04:58:49;;;;;;;17.45;3.28;;;;;;;;;;5040912;28;20460;-50
2021/06/20 05:01:15;;;;;;;19.50;3.60;;;;;;;;;;5042391;28;20033;-50
2021/06/20 05:03:41;;;;;;;24.48;3.45;;;;;;;;;;5041559;28;20028;-51
2021/06/20 05:06:07;;;;;;;17.85;3.58;;;;;;;;;;5041409;28;20112;-51
2021/06/20 05:08:33;;;;;;;14.10;3.58;;;;;;;;;;5042741;28;20048;-51
2021/06/20 05:10:59;;;;;;;14.65;3.75;;;;;;;;;;5051650;28;20083;-51
2021/06/20 05:13:26;;;;;;;20.25;3.97;;;;;;;;;;5050911;28;20086;-51
2021/06/20 05:15:52;;;;;;;16.05;4.80;;;;;;;;;;5051731;28;20040;-51
2021/06/20 05:18:18;;;;;;;17.83;3.80;;;;;;;;;;5052512;28;20021;-51
2021/06/20 05:20:44;;;;;;;26.08;4.32;;;;;;;;;;5051280;28;20482;-51
2021/06/20 05:23:10;;;;;;;27.05;4.25;;;;;;;;;;5052029;28;20361;-51
2021/06/20 05:25:36;;;;;;;17.27;3.92;;;;;;;;;;5052337;28;20033;-51
2021/06/20 05:28:03;;;;;;;19.88;4.93;;;;;;;;;;5052352;28;20107;-51
2021/06/20 05:30:29;;;;;;;25.45;4.55;;;;;;;;;;5050625;28;20055;-51
2021/06/20 05:32:55;;;;;;;17.75;4.43;;;;;;;;;;5051566;28;20432;-51
2021/06/20 05:35:21;;;;;;;18.10;4.43;;;;;;;;;;5052061;28;20021;-51
2021/06/20 05:37:47;;;;;;;20.98;5.13;;;;;;;;;;5051826;28;20120;-50
2021/06/20 05:40:14;;;;;;;13.52;4.15;;;;;;;;;;5051496;28;20025;-51
2021/06/20 05:42:40;;;;;;;27.88;5.20;;;;;;;;;;5051974;28;20033;-51
2021/06/20 05:45:07;;;;;;;14.40;4.68;;;;;;;;;;5051433;28;20107;-51
2021/06/20 05:47:33;;;;;;;22.73;5.40;;;;;;;;;;5051867;28;20029;-51
2021/06/20 05:49:59;;;;;;;21.88;4.80;;;;;;;;;;5042217;28;20026;-51
2021/06/20 05:52:25;;;;;;;27.25;4.68;;;;;;;;;;5037711;28;20364;-51
2021/06/20 05:54:51;;;;;;;14.00;4.32;;;;;;;;;;5035089;28;20026;-51
2021/06/20 05:57:21;;;;;;;14.50;4.82;;;;;;;;;;5043185;28;20021;-51
2021/06/20 05:59:47;;;;;;;18.20;4.78;;;;;;;;;;5047069;28;20422;-51
2021/06/20 06:02:13;;;;;;;15.18;4.88;;;;;;;;;;5046851;28;20063;-51
2021/06/20 06:04:41;;;;;;;22.48;4.70;;;;;;;;;;5052644;28;20452;-51
2021/06/20 06:07:07;;;;;;;21.70;4.80;;;;;;;;;;5055873;28;20056;-50
2021/06/20 06:09:35;;;;;;;23.65;5.57;;;;;;;;;;5055936;28;20126;-50
2021/06/20 06:12:01;;;;;;;14.90;5.22;;;;;;;;;;5045442;28;20482;-51
2021/06/20 06:14:27;;;;;;;21.30;5.75;;;;;;;;;;5049377;28;20384;-51
2021/06/20 06:16:53;;;;;;;12.43;5.53;;;;;;;;;;5042673;28;20028;-51
2021/06/20 06:19:19;;;;;;;13.35;3.92;;;;;;;;;;5041365;28;20040;-51
2021/06/20 06:21:45;;;;;;;18.77;5.57;;;;;;;;;;5042304;28;20033;-51
2021/06/20 06:24:12;;;;;;;21.38;4.97;;;;;;;;;;5046751;28;20028;-51
2021/06/20 06:26:38;;;;;;;22.20;6.05;;;;;;;;;;5053898;28;20044;-51
2021/06/20 06:29:04;;;;;;;22.27;4.70;;;;;;;;;;5055695;28;20025;-51
2021/06/20 06:31:31;;;;;;;20.95;5.70;;;;;;;;;;5054515;28;20033;-51
2021/06/20 06:33:57;;;;;;;27.55;6.03;;;;;;;;;;5055635;28;20459;-51
2021/06/20 06:36:23;;;;;;;19.35;4.43;;;;;;;;;;5055914;28;20029;-51
2021/06/20 06:38:49;;;;;;;20.90;5.93;;;;;;;;;;5056227;28;20028;-50
2021/06/20 06:41:18;;;;;;;24.60;4.70;;;;;;;;;;5054755;28;20028;-51
2021/06/20 06:43:45;;;;;;;19.42;4.05;;;;;;;;;;5055753;28;20521;-51
2021/06/20 06:46:11;;;;;;;17.27;4.57;;;;;;;;;;5055197;28;20367;-51
2021/06/20 06:48:37;;;;;;;13.20;4.22;;;;;;;;;;5055096;28;20024;-51
2021/06/20 06:51:03;;;;;;;21.85;5.65;;;;;;;;;;5054817;28;20029;-51
2021/06/20 06:53:29;;;;;;;16.65;4.85;;;;;;;;;;5055695;28;20456;-51
2021/06/20 06:55:57;;;;;;;16.48;3.90;;;;;;;;;;5055507;28;20029;-51
2021/06/20 06:58:23;;;;;;;18.05;4.43;;;;;;;;;;5055772;28;20383;-51
2021/06/20 07:00:49;;;;;;;13.98;4.47;;;;;;;;;;5054368;28;20024;-50
2021/06/20 07:03:15;;;;;;;10.45;3.78;;;;;;;;;;5055349;28;20028;-51
2021/06/20 07:05:41;;;;;;;20.23;5.32;;;;;;;;;;5055357;28;20029;-51
2021/06/20 07:08:07;;;;;;;23.75;6.25;;;;;;;;;;5053570;28;20021;-51
2021/06/20 07:10:34;;;;;;;14.20;4.53;;;;;;;;;;5054514;28;20035;-51
2021/06/20 07:13:00;;;;;;;21.23;5.72;;;;;;;;;;5054750;28;20036;-50
2021/06/20 07:15:26;;;;;;;20.02;5.55;;;;;;;;;;5055410;28;20070;-51
2021/06/20 07:17:52;;;;;;;19.25;4.90;;;;;;;;;;5054784;28;20025;-51
2021/06/20 07:20:18;;;;;;;24.20;5.10;;;;;;;;;;5054037;28;20032;-51
2021/06/20 07:22:46;;;;;;;20.65;4.93;;;;;;;;;;5054834;28;20021;-51
2021/06/20 07:25:13;;;;;;;19.63;4.30;;;;;;;;;;5051383;28;20044;-51
2021/06/20 07:27:40;;;;;;;14.38;4.13;;;;;;;;;;5045466;28;20014;-51
2021/06/20 07:30:07;;;;;;;19.38;5.50;;;;;;;;;;5042072;28;20022;-51
2021/06/20 07:32:33;;;;;;;16.48;4.88;;;;;;;;;;5043906;28;20390;-51
2021/06/20 07:34:59;;;;;;;17.38;4.25;;;;;;;;;;5043865;28;20014;-51
2021/06/20 07:37:25;;;;;;;13.65;5.75;;;;;;;;;;5041579;28;20030;-51
2021/06/20 07:39:51;;;;;;;20.60;4.47;;;;;;;;;;5044366;28;20025;-51
2021/06/20 07:42:17;;;;;;;15.18;5.28;;;;;;;;;;5042806;28;20044;-51
2021/06/20 07:44:43;;;;;;;25.63;6.32;;;;;;;;;;5048249;28;20025;-51
2021/06/20 07:47:09;;;;;;;17.35;4.72;;;;;;;;;;5044772;28;20045;-51
2021/06/20 07:49:35;;;;;;;16.80;5.10;;;;;;;;;;5047808;28;20032;-51
2021/06/20 07:52:01;;;;;;;16.52;5.30;;;;;;;;;;5045967;28;20029;-51
2021/06/20 07:54:27;;;;;;;21.15;5.18;;;;;;;;;;5049918;28;20336;-51
2021/06/20 07:56:53;;;;;;;15.15;4.32;;;;;;;;;;5054302;28;20025;-51
2021/06/20 07:59:19;;;;;;;20.23;5.10;;;;;;;;;;5054196;28;20348;-51
2021/06/20 08:01:45;;;;;;;21.98;4.68;;;;;;;;;;5053558;28;20017;-51
2021/06/20 08:04:11;;;;;;;22.73;5.13;;;;;;;;;;5054252;28;20435;-51
2021/06/20 08:06:37;;;;;;;15.05;5.20;;;;;;;;;;5053826;28;20024;-51
2021/06/20 08:09:03;;;;;;;27.85;6.60;;;;;;;;;;5054643;28;20029;-51
2021/06/20 08:11:29;;;;;;;31.13;5.80;;;;;;;;;;5053677;28;20060;-51
2021/06/20 08:13:57;;;;;;;18.80;5.50;;;;;;;;;;5054017;28;20058;-51
2021/06/20 08:16:23;;;;;;;15.57;5.55;;;;;;;;;;5053949;28;20029;-51
2021/06/20 08:18:49;;;;;;;20.30;6.10;;;;;;;;;;5053331;28;20040;-51
2021/06/20 08:21:15;;;;;;;29.83;6.43;;;;;;;;;;5052766;28;20031;-51
2021/06/20 08:23:42;;;;;;;24.10;6.03;;;;;;;;;;5053589;28;20337;-51
2021/06/20 08:26:08;;;;;;;19.23;4.22;;;;;;;;;;5053827;28;20029;-51
2021/06/20 08:28:34;;;;;;;20.60;4.88;;;;;;;;;;5053913;28;20021;-51
2021/06/20 08:31:00;;;;;;;17.67;5.70;;;;;;;;;;5053142;28;20174;-51
2021/06/20 08:33:26;;;;;;;23.98;5.68;;;;;;;;;;5053828;28;20029;-51
2021/06/20 08:35:52;;;;;;;20.42;5.85;;;;;;;;;;5053508;28;20021;-52
2021/06/20 08:38:18;;;;;;;17.80;5.40;;;;;;;;;;5053341;28;20024;-51
2021/06/20 08:40:45;;;;;;;13.38;4.70;;;;;;;;;;5052945;28;20155;-51
2021/06/20 08:43:11;;;;;;;19.27;5.85;;;;;;;;;;5053347;28;20025;-51
2021/06/20 08:45:38;;;;;;;20.58;5.75;;;;;;;;;;5053631;28;20367;-51
2021/06/20 08:48:04;;;;;;;19.35;5.15;;;;;;;;;;5052904;28;20025;-51
2021/06/20 08:50:30;;;;;;;24.75;5.50;;;;;;;;;;5052320;28;20045;-51
2021/06/20 08:52:56;;;;;;;20.42;5.32;;;;;;;;;;5053155;28;20045;-51
2021/06/20 08:55:23;;;;;;;35.90;6.82;;;;;;;;;;5053690;28;20021;-51
2021/06/20 08:57:51;;;;;;;16.70;5.40;;;;;;;;;;5052576;28;20032;-51
2021/06/20 09:00:18;;;;;;;25.52;5.63;;;;;;;;;;5046740;28;20028;-52
2021/06/20 09:02:44;;;;;;;19.48;5.55;;;;;;;;;;5051784;28;20468;-51
2021/06/20 09:05:11;;;;;;;20.00;4.50;;;;;;;;;;5051836;28;20460;-51
2021/06/20 09:07:38;;;;;;;35.95;6.18;;;;;;;;;;5052234;28;20460;-52
2021/06/20 09:10:17;;;;;;;20.73;5.35;;;;;;;;;;5052224;28;20029;-51
2021/06/20 09:12:43;;;;;;;23.67;5.05;;;;;;;;;;5052427;28;20048;-51
2021/06/20 09:15:10;;;;;;;11.77;3.78;;;;;;;;;;5053081;28;20029;-51
2021/06/20 09:17:36;;;;;;;17.95;4.50;;;;;;;;;;5052642;28;20049;-51
2021/06/20 09:20:04;;;;;;;15.70;4.90;;;;;;;;;;5052273;28;20037;-51
2021/06/20 09:22:30;;;;;;;25.42;4.78;;;;;;;;;;5052083;28;20028;-51
2021/06/20 09:24:59;;;;;;;21.92;4.22;;;;;;;;;;5052975;28;20360;-51
2021/06/20 09:27:25;;;;;;;12.65;4.90;;;;;;;;;;5053143;28;20020;-51
2021/06/20 09:29:51;;;;;;;12.13;4.70;;;;;;;;;;5051897;28;20024;-51
2021/06/20 09:32:18;;;;;;;18.30;4.72;;;;;;;;;;5051428;28;20109;-51
2021/06/20 09:34:48;;;;;;;15.38;4.63;;;;;;;;;;5052504;28;20424;-51
2021/06/20 09:37:14;;;;;;;19.80;5.07;;;;;;;;;;5052120;28;20569;-51
2021/06/20 09:39:40;;;;;;;18.20;5.45;;;;;;;;;;5052785;28;20029;-51
2021/06/20 09:42:06;;;;;;;18.63;4.40;;;;;;;;;;5051785;28;20521;-51
2021/06/20 09:44:32;;;;;;;21.23;5.35;;;;;;;;;;5050740;28;20025;-51
2021/06/20 09:46:58;;;;;;;13.90;4.25;;;;;;;;;;5052502;28;20151;-51
2021/06/20 09:49:31;;;;;;;21.83;4.40;;;;;;;;;;5052904;28;20028;-51
2021/06/20 09:51:58;;;;;;;13.18;4.85;;;;;;;;;;5050927;28;20460;-51
2021/06/20 09:54:28;;;;;;;29.85;5.25;;;;;;;;;;5052361;28;20475;-51
2021/06/20 09:56:53;;;;;;;17.25;4.95;;;;;;;;;;5052568;28;20025;-51
2021/06/20 09:59:26;;;;;;;17.25;4.43;;;;;;;;;;5052073;28;20033;-52
2021/06/20 10:01:52;;;;;;;18.80;4.90;;;;;;;;;;5051820;28;20336;-52
2021/06/20 10:04:18;;;;;;;12.80;4.80;;;;;;;;;;5052301;28;20053;-52
2021/06/20 10:06:45;;;;;;;12.98;4.43;;;;;;;;;;5052523;28;20021;-52
2021/06/20 10:09:11;;;;;;;22.75;6.22;;;;;;;;;;5052315;28;20025;-51
2021/06/20 10:11:37;;;;;;;20.38;4.72;;;;;;;;;;5051909;28;20072;-52
2021/06/20 10:14:03;;;;;;;15.82;4.90;;;;;;;;;;5052342;28;20476;-52
2021/06/20 10:16:37;;;;;;;15.05;4.90;;;;;;;;;;5052319;28;20057;-51
2021/06/20 10:19:14;;;;;;;14.45;4.72;;;;;;;;;;5051977;28;20070;-51
2021/06/20 10:21:42;;;;;;;16.35;5.18;;;;;;;;;;5051514;28;20029;-51
2021/06/20 10:24:12;;;;;;;15.88;4.97;;;;;;;;;;5052070;28;20079;-51
2021/06/20 10:26:39;;;;;;;20.85;5.28;;;;;;;;;;5052844;28;20021;-51
2021/06/20 10:29:16;;;;;;;20.30;5.38;;;;;;;;;;5052333;28;20025;-51
2021/06/20 10:31:42;;;;;;;14.40;5.57;;;;;;;;;;5051311;28;20367;-51
2021/06/20 10:34:34;;;;;;;28.52;5.68;;;;;;;;;;5052298;28;20071;-51
2021/06/20 10:37:05;;;;;;;16.98;5.75;;;;;;;;;;5049067;28;20063;-52
2021/06/20 10:39:31;;;;;;;22.63;5.65;;;;;;;;;;5052075;28;20025;-51
2021/06/20 10:42:11;;;;;;;13.98;5.25;;;;;;;;;;5052778;28;20031;-51
2021/06/20 10:44:44;;;;;;;24.30;6.05;;;;;;;;;;5055755;28;20456;-51
2021/06/20 10:47:10;;;;;;;24.17;5.68;;;;;;;;;;5055654;28;20106;-51
2021/06/20 10:49:37;;;;;;;18.27;5.28;;;;;;;;;;5056123;28;20029;-51
2021/06/20 10:52:14;;;;;;;21.10;4.93;;;;;;;;;;5054747;28;20036;-52
2021/06/20 10:54:40;;;;;;;18.20;6.40;;;;;;;;;;5055439;28;20500;-52
2021/06/20 10:57:06;;;;;;;32.08;6.35;;;;;;;;;;5055484;28;20108;-51
2021/06/20 10:59:32;;;;;;;20.45;5.35;;;;;;;;;;5055722;28;20127;-52
2021/06/20 11:01:58;;;;;;;17.13;5.40;;;;;;;;;;5054818;28;20017;-51
2021/06/20 11:04:24;;;;;;;18.52;4.68;;;;;;;;;;5055082;28;20391;-52
2021/06/20 11:06:54;;;;;;;19.05;4.32;;;;;;;;;;5054660;28;20059;-52
2021/06/20 11:09:22;;;;;;;16.48;4.80;;;;;;;;;;5054380;28;20033;-52
2021/06/20 11:12:02;;;;;;;11.73;4.68;;;;;;;;;;5052742;28;20036;-52
2021/06/20 11:14:28;;;;;;;27.80;4.72;;;;;;;;;;5053528;28;20044;-52
2021/06/20 11:16:54;;;;;;;18.10;5.03;;;;;;;;;;5054141;28;20025;-51
2021/06/20 11:19:20;;;;;;;23.45;4.65;;;;;;;;;;5054215;28;20387;-52
2021/06/20 11:21:51;;;;;;;22.75;4.53;;;;;;;;;;5054465;28;20440;-53
2021/06/20 11:24:28;;;;;;;18.67;4.85;;;;;;;;;;5054788;28;20329;-53
2021/06/20 11:26:54;;;;;;;10.30;3.17;;;;;;;;;;5055224;28;20029;-53
2021/06/20 11:29:21;;;;;;;16.98;3.85;;;;;;;;;;5055155;28;20223;-53
2021/06/20 11:31:53;;;;;;;10.20;3.75;;;;;;;;;;5053830;28;20479;-53
2021/06/20 11:34:19;;;;;;;15.00;3.70;;;;;;;;;;5054674;28;20130;-53
2021/06/20 11:36:45;;;;;;;9.90;3.35;;;;;;;;;;5054705;28;20444;-53
2021/06/20 11:39:12;;;;;;;16.75;4.00;;;;;;;;;;5054426;28;20020;-53
2021/06/20 11:41:56;;;;;;;10.43;3.75;;;;;;;;;;5053876;28;20021;-53
2021/06/20 11:44:22;;;;;;;11.30;3.42;;;;;;;;;;5054614;28;20035;-53
2021/06/20 11:46:48;;;;;;;17.73;3.75;;;;;;;;;;5054608;28;20104;-53
2021/06/20 11:49:15;;;;;;;19.45;4.43;;;;;;;;;;5054582;28;20032;-53
2021/06/20 11:51:49;;;;;;;18.02;4.25;;;;;;;;;;5053476;28;20447;-53
2021/06/20 11:54:18;;;;;;;26.60;4.50;;;;;;;;;;5053531;28;20029;-53
2021/06/20 11:56:45;;;;;;;13.95;3.67;;;;;;;;;;5054424;28;20017;-53
2021/06/20 11:59:11;;;;;;;21.95;4.93;;;;;;;;;;5054379;28;20085;-53
2021/06/20 12:01:45;;;;;;;11.70;4.30;;;;;;;;;;5053050;28;20026;-53
2021/06/20 12:04:12;;;;;;;24.95;3.83;;;;;;;;;;5053674;28;20021;-53
2021/06/20 12:06:38;;;;;;;16.45;3.60;;;;;;;;;;5054317;28;20013;-54
2021/06/20 12:09:09;;;;;;;19.20;4.05;;;;;;;;;;5050890;28;20078;-53
2021/06/20 12:11:35;;;;;;;15.98;3.47;;;;;;;;;;5053107;28;20511;-53
2021/06/20 12:14:03;;;;;;;20.75;4.03;;;;;;;;;;5054187;28;20068;-53
2021/06/20 12:16:29;;;;;;;18.83;3.95;;;;;;;;;;5054307;28;20055;-53
2021/06/20 12:18:56;;;;;;;15.82;3.65;;;;;;;;;;5052543;28;20025;-53
2021/06/20 12:21:26;;;;;;;23.30;4.85;;;;;;;;;;5053132;28;20017;-53
2021/06/20 12:23:54;;;;;;;30.85;4.40;;;;;;;;;;5053368;28;20029;-53
2021/06/20 12:26:26;;;;;;;15.95;3.45;;;;;;;;;;5053697;28;20368;-53
2021/06/20 12:28:52;;;;;;;17.33;4.22;;;;;;;;;;5054081;28;20359;-53
2021/06/20 12:31:18;;;;;;;24.40;4.57;;;;;;;;;;5053037;28;20025;-53
2021/06/20 12:33:44;;;;;;;18.33;3.97;;;;;;;;;;5053913;28;20031;-53
2021/06/20 12:36:11;;;;;;;19.92;4.00;;;;;;;;;;5053584;28;20017;-53
2021/06/20 12:38:38;;;;;;;19.42;4.20;;;;;;;;;;5053081;28;20032;-53
2021/06/20 12:41:04;;;;;;;22.52;4.93;;;;;;;;;;5052912;28;20036;-53
2021/06/20 12:43:31;;;;;;;27.17;4.05;;;;;;;;;;5053819;28;20029;-54
2021/06/20 12:46:00;;;;;;;22.17;4.28;;;;;;;;;;5053267;28;20479;-53
2021/06/20 12:48:26;;;;;;;20.50;4.65;;;;;;;;;;5053695;28;20040;-53
2021/06/20 12:50:53;;;;;;;26.85;4.57;;;;;;;;;;5052563;28;20103;-53
2021/06/20 12:53:33;;;;;;;22.85;4.50;;;;;;;;;;5052944;28;20044;-53
2021/06/20 12:56:00;;;;;;;27.90;4.85;;;;;;;;;;5053101;28;20100;-53
2021/06/20 12:58:26;;;;;;;22.75;4.90;;;;;;;;;;5053662;28;20035;-53
2021/06/20 13:01:03;;;;;;;19.27;4.10;;;;;;;;;;5052081;28;20031;-54
2021/06/20 13:03:30;;;;;;;18.88;5.25;;;;;;;;;;5052765;28;20372;-53
2021/06/20 13:05:58;;;;;;;29.92;6.00;;;;;;;;;;5052296;28;20091;-53
2021/06/20 13:08:28;;;;;;;19.20;4.80;;;;;;;;;;5053067;28;20028;-53
2021/06/20 13:10:54;;;;;;;;;;;;;;;;;;5052183;28;20052;-53
2021/06/20 13:13:20;;;;;;;27.95;5.72;;;;;;;;;;5052957;28;19913;-54
2021/06/20 13:15:46;;;;;;;16.77;5.18;;;;;;;;;;5045965;28;20501;-53
2021/06/20 13:18:12;;;;;;;27.13;5.22;;;;;;;;;;5042582;28;20056;-53
2021/06/20 13:20:38;;;;;;;23.67;4.43;;;;;;;;;;5040059;28;20116;-53
2021/06/20 13:23:05;;;;;;;22.83;5.32;;;;;;;;;;5037811;28;20437;-53
2021/06/20 13:25:32;;;;;;;22.10;4.68;;;;;;;;;;5033074;28;20022;-53
2021/06/20 13:27:58;;;;;;;18.38;4.78;;;;;;;;;;5033015;28;20079;-53
2021/06/20 13:30:25;;;;;;;32.08;4.68;;;;;;;;;;5031755;28;20076;-53
2021/06/20 13:32:52;;;;;;;21.98;5.55;;;;;;;;;;5044164;28;20077;-53
2021/06/20 13:35:18;;;;;;;30.23;5.53;;;;;;;;;;5052833;28;20024;-54
2021/06/20 13:37:45;;;;;;;25.55;5.93;;;;;;;;;;5052593;28;20083;-53
2021/06/20 13:40:12;;;;;;;26.77;6.95;;;;;;;;;;5052119;28;20380;-53
2021/06/20 13:42:39;;;;;;;46.08;6.22;;;;;;;;;;5052484;28;20025;-54
2021/06/20 13:45:07;;;;;;;30.50;6.03;;;;;;;;;;5052670;28;20368;-54
2021/06/20 13:47:33;;;;;;;22.50;5.22;;;;;;;;;;5052697;28;20075;-54
2021/06/20 13:49:59;;;;;;;25.45;4.47;;;;;;;;;;5052419;28;20440;-53
2021/06/20 13:52:25;;;;;;;23.70;6.68;;;;;;;;;;5051305;28;20036;-53
2021/06/20 13:54:55;;;;;;;23.00;4.45;;;;;;;;;;5052459;28;20033;-54
2021/06/20 13:57:22;;;;;;;26.45;5.50;;;;;;;;;;5052620;28;20043;-54
2021/06/20 13:59:48;;;;;;;21.70;5.25;;;;;;;;;;5051763;28;20017;-53
2021/06/20 14:02:14;;;;;;;19.52;4.03;;;;;;;;;;5051706;28;20026;-54
2021/06/20 14:04:40;;;;;;;23.23;4.43;;;;;;;;;;5052880;28;20021;-54
2021/06/20 14:07:06;;;;;;;30.23;5.85;;;;;;;;;;5052438;28;20316;-54
2021/06/20 14:09:32;;;;;;;26.83;6.10;;;;;;;;;;5052723;28;20115;-53
2021/06/20 14:11:58;;;;;;;26.50;4.70;;;;;;;;;;5051206;28;20021;-54
2021/06/20 14:14:24;;;;;;;35.55;5.45;;;;;;;;;;5051797;28;20036;-54
2021/06/20 14:16:50;;;;;;;34.42;5.03;;;;;;;;;;5053660;28;20035;-53
2021/06/20 14:19:16;;;;;;;30.13;4.78;;;;;;;;;;5056298;28;20298;-54
2021/06/20 14:21:42;;;;;;;32.47;4.43;;;;;;;;;;5055517;28;20440;-53
2021/06/20 14:24:08;;;;;;;38.63;5.05;;;;;;;;;;5055762;28;20040;-54
2021/06/20 14:26:34;;;;;;;33.17;4.25;;;;;;;;;;5055960;28;20025;-53
2021/06/20 14:29:00;;;;;;;31.35;4.78;;;;;;;;;;5055816;28;20025;-54
2021/06/20 14:31:26;;;;;;;28.30;3.80;;;;;;;;;;5055162;28;20028;-54